Aldebaran — C6BD5 — position and weather

sailwx.info

Track history (hours):
 
Tides and Currents Weather Stations Pressure Air Temp Water Temp Dewpoint Dewpoint Depression Visibility Wind Speed Wind Dir Waves Ship Positions

Aldebaran

Last reported at 2018-Aug-13 11:13 UTC. Time now 2018-Aug-15 12:38 UTC.
Position N 39°02' E 009°05'.

Length 183 m; draft 7.5 m.

Type: Tanker. MMSI: 311000232.

Date/timePositionNaut miles runAvg speedWind from/ knotsBaromVisibWave heightAir tempDewpointWater temp
2018-Aug-13 11:13N 39°02' E 009°05'0 0.0
2018-Aug-13 10:52N 39°02' E 009°05'0 0.0
2018-Aug-13 10:16N 39°02' E 009°05'5 0.1
2018-Aug-11 17:26N 38°57' E 009°05'1910.7
2018-Aug-11 15:42N 38°47' E 008°45'211.5
2018-Aug-11 15:31N 38°47' E 008°43'14211.3
2018-Aug-11 02:55N 40°35' E 006°42'7411.7
2018-Aug-10 20:34N 41°36' E 005°46'111.0
2018-Aug-10 20:30N 41°36' E 005°45'611.2
2018-Aug-10 19:57N 41°41' E 005°40'511.4
2018-Aug-10 19:31N 41°46' E 005°37'  
2018-Aug-08 11:35N 43°13' E 004°19'4 0.2
2018-Aug-07 07:25N 43°13' E 004°13'24 1.1
2018-Aug-06 09:22N 43°24' E 003°45'0 0.0
2018-Aug-06 01:04N 43°24' E 003°45'0 0.1
2018-Aug-06 00:58N 43°24' E 003°45'0 0.0
2018-Aug-06 00:22N 43°24' E 003°45'0 0.0
2018-Aug-05 23:58N 43°24' E 003°45'0 0.0
2018-Aug-05 23:10N 43°24' E 003°45'0 0.0
2018-Aug-05 22:55N 43°24' E 003°45'0 0.0
2018-Aug-05 22:28N 43°24' E 003°45'0 0.0
2018-Aug-05 21:13N 43°24' E 003°45'0 0.0
2018-Aug-05 20:58N 43°24' E 003°45'0 0.0
2018-Aug-05 20:22N 43°24' E 003°45'0 0.0
2018-Aug-05 18:13N 43°24' E 003°45'0 0.0
2018-Aug-05 17:58N 43°24' E 003°45'0 0.0
2018-Aug-05 17:28N 43°24' E 003°45'0 0.0
2018-Aug-05 16:58N 43°24' E 003°45'0 0.0
2018-Aug-05 16:28N 43°24' E 003°45'0 0.0
2018-Aug-05 15:58N 43°24' E 003°45'0 0.0
2018-Aug-05 15:28N 43°24' E 003°45'0 0.0
2018-Aug-05 14:58N 43°24' E 003°45'0 0.0
2018-Aug-05 13:46N 43°24' E 003°45'0 0.0
2018-Aug-05 13:25N 43°24' E 003°45'0 0.0
2018-Aug-05 11:43N 43°24' E 003°45'0 0.0
2018-Aug-05 08:28N 43°24' E 003°45'0 0.0
2018-Aug-05 06:49N 43°24' E 003°45'0 0.0
2018-Aug-05 06:30N 43°24' E 003°45'0 0.0
2018-Aug-05 06:00N 43°24' E 003°45'0 0.2
2018-Aug-05 05:30N 43°24' E 003°45'1 2.0
2018-Aug-05 05:00N 43°23' E 003°44'1 1.9
2018-Aug-05 04:30N 43°22' E 003°45'0 0.2
2018-Aug-05 03:58N 43°22' E 003°45'0 0.0
2018-Aug-05 02:34N 43°22' E 003°45'0 0.0
2018-Aug-05 02:25N 43°22' E 003°45'0 0.0
2018-Aug-05 01:46N 43°22' E 003°45'0 0.0
2018-Aug-05 01:28N 43°22' E 003°45'0 0.0
2018-Aug-05 00:58N 43°22' E 003°45'0 0.0
2018-Aug-05 00:28N 43°22' E 003°45'0 0.0
2018-Aug-04 23:58N 43°22' E 003°45'0 0.0
2018-Aug-04 23:28N 43°22' E 003°45'0 0.0
2018-Aug-04 22:37N 43°22' E 003°45'0 0.0
2018-Aug-04 20:31N 43°22' E 003°45'0 0.3
2018-Aug-04 20:29N 43°22' E 003°45'2 3.5
2018-Aug-04 20:01N 43°22' E 003°47'5 8.9
2018-Aug-04 19:29N 43°19' E 003°51'612.1
2018-Aug-04 19:01N 43°14' E 003°55'612.3
2018-Aug-04 18:30N 43°09' E 004°01'3812.8
2018-Aug-04 15:33N 42°39' E 004°31'113.0
2018-Aug-04 15:30N 42°38' E 004°32'713.1
2018-Aug-04 15:00N 42°33' E 004°37'713.0
2018-Aug-04 14:29N 42°28' E 004°43'1912.9
2018-Aug-04 12:59N 42°12' E 004°58'712.8
2018-Aug-04 12:25N 42°07' E 005°04'1412.5
2018-Aug-04 11:18N 41°56' E 005°15'412.4
2018-Aug-04 11:01N 41°53' E 005°18'612.2
2018-Aug-04 10:31N 41°48' E 005°23'5112.3
2018-Aug-04 06:20N 41°07' E 006°05'412.5
2018-Aug-04 05:59N 41°03' E 006°08'17212.7
2018-Aug-03 16:23N 38°46' E 008°23'3313.1
2018-Aug-03 13:52N 38°29' E 008°59'  
Track history (hours):
 
Tides and Currents Weather Stations Pressure Air Temp Water Temp Dewpoint Dewpoint Depression Visibility Wind Speed Wind Dir Waves Ship Positions

Aldebaran

Last reported at 2018-Aug-13 11:13 UTC. Time now 2018-Aug-15 12:38 UTC.
Position N 39°02' E 009°05'.

Length 183 m; draft 7.5 m.

Type: Tanker. MMSI: 311000232.

Date/timePositionNaut miles runAvg speedWind from/ knotsBaromVisibWave heightAir tempDewpointWater temp
2018-Aug-13 11:13N 39°02' E 009°05'0 0.0
2018-Aug-13 10:52N 39°02' E 009°05'0 0.0
2018-Aug-13 10:16N 39°02' E 009°05'5 0.1
2018-Aug-11 17:26N 38°57' E 009°05'1910.7
2018-Aug-11 15:42N 38°47' E 008°45'211.5
2018-Aug-11 15:31N 38°47' E 008°43'14211.3
2018-Aug-11 02:55N 40°35' E 006°42'7411.7
2018-Aug-10 20:34N 41°36' E 005°46'111.0
2018-Aug-10 20:30N 41°36' E 005°45'611.2
2018-Aug-10 19:57N 41°41' E 005°40'511.4
2018-Aug-10 19:31N 41°46' E 005°37'  
2018-Aug-08 11:35N 43°13' E 004°19'4 0.2
2018-Aug-07 07:25N 43°13' E 004°13'24 1.1
2018-Aug-06 09:22N 43°24' E 003°45'0 0.0
2018-Aug-06 01:04N 43°24' E 003°45'0 0.1
2018-Aug-06 00:58N 43°24' E 003°45'0 0.0
2018-Aug-06 00:22N 43°24' E 003°45'0 0.0
2018-Aug-05 23:58N 43°24' E 003°45'0 0.0
2018-Aug-05 23:10N 43°24' E 003°45'0 0.0
2018-Aug-05 22:55N 43°24' E 003°45'0 0.0
2018-Aug-05 22:28N 43°24' E 003°45'0 0.0
2018-Aug-05 21:13N 43°24' E 003°45'0 0.0
2018-Aug-05 20:58N 43°24' E 003°45'0 0.0
2018-Aug-05 20:22N 43°24' E 003°45'0 0.0
2018-Aug-05 18:13N 43°24' E 003°45'0 0.0
2018-Aug-05 17:58N 43°24' E 003°45'0 0.0
2018-Aug-05 17:28N 43°24' E 003°45'0 0.0
2018-Aug-05 16:58N 43°24' E 003°45'0 0.0
2018-Aug-05 16:28N 43°24' E 003°45'0 0.0
2018-Aug-05 15:58N 43°24' E 003°45'0 0.0
2018-Aug-05 15:28N 43°24' E 003°45'0 0.0
2018-Aug-05 14:58N 43°24' E 003°45'0 0.0
2018-Aug-05 13:46N 43°24' E 003°45'0 0.0
2018-Aug-05 13:25N 43°24' E 003°45'0 0.0
2018-Aug-05 11:43N 43°24' E 003°45'0 0.0
2018-Aug-05 08:28N 43°24' E 003°45'0 0.0
2018-Aug-05 06:49N 43°24' E 003°45'0 0.0
2018-Aug-05 06:30N 43°24' E 003°45'0 0.0
2018-Aug-05 06:00N 43°24' E 003°45'0 0.2
2018-Aug-05 05:30N 43°24' E 003°45'1 2.0
2018-Aug-05 05:00N 43°23' E 003°44'1 1.9
2018-Aug-05 04:30N 43°22' E 003°45'0 0.2
2018-Aug-05 03:58N 43°22' E 003°45'0 0.0
2018-Aug-05 02:34N 43°22' E 003°45'0 0.0
2018-Aug-05 02:25N 43°22' E 003°45'0 0.0
2018-Aug-05 01:46N 43°22' E 003°45'0 0.0
2018-Aug-05 01:28N 43°22' E 003°45'0 0.0
2018-Aug-05 00:58N 43°22' E 003°45'0 0.0
2018-Aug-05 00:28N 43°22' E 003°45'0 0.0
2018-Aug-04 23:58N 43°22' E 003°45'0 0.0
2018-Aug-04 23:28N 43°22' E 003°45'0 0.0
2018-Aug-04 22:37N 43°22' E 003°45'0 0.0
2018-Aug-04 20:31N 43°22' E 003°45'0 0.3
2018-Aug-04 20:29N 43°22' E 003°45'2 3.5
2018-Aug-04 20:01N 43°22' E 003°47'5 8.9
2018-Aug-04 19:29N 43°19' E 003°51'612.1
2018-Aug-04 19:01N 43°14' E 003°55'612.3
2018-Aug-04 18:30N 43°09' E 004°01'3812.8
2018-Aug-04 15:33N 42°39' E 004°31'113.0
2018-Aug-04 15:30N 42°38' E 004°32'713.1
2018-Aug-04 15:00N 42°33' E 004°37'713.0
2018-Aug-04 14:29N 42°28' E 004°43'1912.9
2018-Aug-04 12:59N 42°12' E 004°58'712.8
2018-Aug-04 12:25N 42°07' E 005°04'1412.5
2018-Aug-04 11:18N 41°56' E 005°15'412.4
2018-Aug-04 11:01N 41°53' E 005°18'612.2
2018-Aug-04 10:31N 41°48' E 005°23'5112.3
2018-Aug-04 06:20N 41°07' E 006°05'412.5
2018-Aug-04 05:59N 41°03' E 006°08'17212.7
2018-Aug-03 16:23N 38°46' E 008°23'3313.1
2018-Aug-03 13:52N 38°29' E 008°59'  

Dump ship's entire track history